sensor_id;sensor_type;location;lat;lon;timestamp;pressure;altitude;pressure_sealevel;temperature;humidity
21096;BME280;10706;49.036;12.112;2023-09-19T00:00:22;97313.41;;;16.32;99.51
21096;BME280;10706;49.036;12.112;2023-09-19T00:02:58;97309.63;;;16.63;98.23
21096;BME280;10706;49.036;12.112;2023-09-19T00:05:28;97317.03;;;16.52;98.55
21096;BME280;10706;49.036;12.112;2023-09-19T00:07:56;97316.97;;;16.57;98.27
21096;BME280;10706;49.036;12.112;2023-09-19T00:10:26;97310.94;;;16.70;98.02
21096;BME280;10706;49.036;12.112;2023-09-19T00:12:55;97306.22;;;16.81;96.78
21096;BME280;10706;49.036;12.112;2023-09-19T00:15:26;97303.72;;;16.90;96.63
21096;BME280;10706;49.036;12.112;2023-09-19T00:17:55;97307.28;;;16.56;97.74
21096;BME280;10706;49.036;12.112;2023-09-19T00:20:21;97303.47;;;16.57;97.96
21096;BME280;10706;49.036;12.112;2023-09-19T00:22:50;97308.59;;;16.59;97.95
21096;BME280;10706;49.036;12.112;2023-09-19T00:25:18;97304.53;;;16.61;97.75
21096;BME280;10706;49.036;12.112;2023-09-19T00:27:44;97309.69;;;16.87;96.96
21096;BME280;10706;49.036;12.112;2023-09-19T00:30:11;97310.38;;;16.98;96.47
21096;BME280;10706;49.036;12.112;2023-09-19T00:32:46;97309.81;;;17.01;95.60
21096;BME280;10706;49.036;12.112;2023-09-19T00:35:14;97309.59;;;16.97;95.73
21096;BME280;10706;49.036;12.112;2023-09-19T00:37:41;97310.84;;;17.05;95.58
21096;BME280;10706;49.036;12.112;2023-09-19T00:40:08;97314.97;;;16.97;95.26
21096;BME280;10706;49.036;12.112;2023-09-19T00:42:45;97302.47;;;17.06;95.23
21096;BME280;10706;49.036;12.112;2023-09-19T00:45:13;97312.97;;;16.79;96.07
21096;BME280;10706;49.036;12.112;2023-09-19T00:47:41;97311.88;;;16.85;95.56
21096;BME280;10706;49.036;12.112;2023-09-19T00:50:09;97313.41;;;16.91;95.60
21096;BME280;10706;49.036;12.112;2023-09-19T00:52:37;97310.94;;;16.70;96.29
21096;BME280;10706;49.036;12.112;2023-09-19T00:55:06;97312.19;;;16.78;95.99
21096;BME280;10706;49.036;12.112;2023-09-19T00:57:33;97321.06;;;16.79;95.88
21096;BME280;10706;49.036;12.112;2023-09-19T01:00:01;97310.69;;;16.67;96.92
21096;BME280;10706;49.036;12.112;2023-09-19T01:02:34;97310.69;;;16.67;97.15
21096;BME280;10706;49.036;12.112;2023-09-19T01:05:01;97306.56;;;16.75;96.41
21096;BME280;10706;49.036;12.112;2023-09-19T01:07:28;97314.66;;;16.75;96.26
21096;BME280;10706;49.036;12.112;2023-09-19T01:10:02;97305.31;;;16.91;95.86
21096;BME280;10706;49.036;12.112;2023-09-19T01:13:01;97310.72;;;16.91;95.61
21096;BME280;10706;49.036;12.112;2023-09-19T01:24:16;97313.81;;;17.03;95.06
21096;BME280;10706;49.036;12.112;2023-09-19T01:30:11;97328.38;;;17.02;94.33
21096;BME280;10706;49.036;12.112;2023-09-19T01:32:39;97325.78;;;16.97;94.39
21096;BME280;10706;49.036;12.112;2023-09-19T01:35:06;97330.47;;;17.10;94.25
21096;BME280;10706;49.036;12.112;2023-09-19T01:37:37;97326.09;;;16.90;94.28
21096;BME280;10706;49.036;12.112;2023-09-19T01:40:12;97334.22;;;16.85;94.43
21096;BME280;10706;49.036;12.112;2023-09-19T01:46:14;97331.34;;;16.77;95.04
21096;BME280;10706;49.036;12.112;2023-09-19T01:48:54;97334.00;;;16.52;95.49
21096;BME280;10706;49.036;12.112;2023-09-19T01:52:02;97333.44;;;16.56;95.67
21096;BME280;10706;49.036;12.112;2023-09-19T01:54:36;97336.94;;;16.56;95.48
21096;BME280;10706;49.036;12.112;2023-09-19T01:57:17;97336.22;;;16.75;94.72
21096;BME280;10706;49.036;12.112;2023-09-19T01:59:54;97339.47;;;16.71;94.85
21096;BME280;10706;49.036;12.112;2023-09-19T02:02:23;97336.31;;;16.64;94.67
21096;BME280;10706;49.036;12.112;2023-09-19T02:04:50;97336.66;;;16.87;94.28
21096;BME280;10706;49.036;12.112;2023-09-19T02:07:16;97335.91;;;17.05;93.45
21096;BME280;10706;49.036;12.112;2023-09-19T02:09:42;97342.81;;;17.17;93.22
21096;BME280;10706;49.036;12.112;2023-09-19T02:12:09;97344.44;;;17.18;92.96
21096;BME280;10706;49.036;12.112;2023-09-19T02:14:35;97344.88;;;17.25;92.87
21096;BME280;10706;49.036;12.112;2023-09-19T02:17:03;97353.53;;;17.22;92.94
21096;BME280;10706;49.036;12.112;2023-09-19T02:19:33;97349.91;;;17.32;92.50
21096;BME280;10706;49.036;12.112;2023-09-19T02:22:00;97348.72;;;17.19;92.40
21096;BME280;10706;49.036;12.112;2023-09-19T02:24:29;97344.38;;;16.99;93.22
21096;BME280;10706;49.036;12.112;2023-09-19T02:26:54;97345.41;;;17.03;93.10
21096;BME280;10706;49.036;12.112;2023-09-19T02:29:21;97346.59;;;17.16;92.64
21096;BME280;10706;49.036;12.112;2023-09-19T02:31:47;97355.25;;;17.13;92.91
21096;BME280;10706;49.036;12.112;2023-09-19T02:34:13;97360.38;;;17.14;92.66
21096;BME280;10706;49.036;12.112;2023-09-19T02:36:39;97360.91;;;17.16;92.80
21096;BME280;10706;49.036;12.112;2023-09-19T02:39:05;97352.56;;;17.13;92.73
21096;BME280;10706;49.036;12.112;2023-09-19T02:41:31;97352.53;;;17.18;92.73
21096;BME280;10706;49.036;12.112;2023-09-19T02:43:58;97348.47;;;17.15;92.76
21096;BME280;10706;49.036;12.112;2023-09-19T02:46:24;97354.09;;;16.95;93.52
21096;BME280;10706;49.036;12.112;2023-09-19T02:48:50;97352.06;;;17.10;93.12
21096;BME280;10706;49.036;12.112;2023-09-19T02:51:16;97354.75;;;17.10;93.24
21096;BME280;10706;49.036;12.112;2023-09-19T02:53:42;97359.81;;;16.93;93.64
21096;BME280;10706;49.036;12.112;2023-09-19T02:56:08;97356.78;;;16.95;93.02
21096;BME280;10706;49.036;12.112;2023-09-19T02:58:35;97359.59;;;16.84;93.45
21096;BME280;10706;49.036;12.112;2023-09-19T03:01:09;97369.78;;;16.58;94.49
21096;BME280;10706;49.036;12.112;2023-09-19T03:03:36;97372.81;;;16.81;94.06
21096;BME280;10706;49.036;12.112;2023-09-19T03:06:05;97374.28;;;16.68;94.21
21096;BME280;10706;49.036;12.112;2023-09-19T03:08:31;97373.84;;;16.90;93.26
21096;BME280;10706;49.036;12.112;2023-09-19T03:11:03;97362.38;;;17.03;92.27
21096;BME280;10706;49.036;12.112;2023-09-19T03:13:32;97377.69;;;16.79;92.85
21096;BME280;10706;49.036;12.112;2023-09-19T03:15:58;97375.50;;;16.86;92.92
21096;BME280;10706;49.036;12.112;2023-09-19T03:18:24;97368.81;;;16.78;92.87
21096;BME280;10706;49.036;12.112;2023-09-19T03:20:55;97387.97;;;16.77;93.30
21096;BME280;10706;49.036;12.112;2023-09-19T03:23:22;97392.25;;;16.78;93.41
21096;BME280;10706;49.036;12.112;2023-09-19T03:25:48;97389.91;;;17.00;92.45
21096;BME280;10706;49.036;12.112;2023-09-19T03:28:14;97385.28;;;17.06;91.69
21096;BME280;10706;49.036;12.112;2023-09-19T03:30:41;97390.97;;;17.04;91.80
21096;BME280;10706;49.036;12.112;2023-09-19T03:33:07;97389.47;;;16.93;92.26
21096;BME280;10706;49.036;12.112;2023-09-19T03:35:33;97388.03;;;16.66;93.54
21096;BME280;10706;49.036;12.112;2023-09-19T03:38:00;97392.72;;;16.90;92.58
21096;BME280;10706;49.036;12.112;2023-09-19T03:40:26;97388.28;;;17.04;91.96
21096;BME280;10706;49.036;12.112;2023-09-19T03:42:51;97385.56;;;17.04;91.37
21096;BME280;10706;49.036;12.112;2023-09-19T03:45:17;97388.41;;;16.89;92.17
21096;BME280;10706;49.036;12.112;2023-09-19T03:47:44;97381.25;;;17.03;91.28
21096;BME280;10706;49.036;12.112;2023-09-19T03:50:12;97388.28;;;17.04;91.51
21096;BME280;10706;49.036;12.112;2023-09-19T03:52:40;97393.25;;;16.92;91.64
21096;BME280;10706;49.036;12.112;2023-09-19T03:55:06;97396.00;;;17.11;91.41
21096;BME280;10706;49.036;12.112;2023-09-19T03:57:33;97397.63;;;16.83;91.89
21096;BME280;10706;49.036;12.112;2023-09-19T04:00:02;97388.00;;;16.71;92.14
21096;BME280;10706;49.036;12.112;2023-09-19T04:02:30;97400.28;;;16.88;91.85
21096;BME280;10706;49.036;12.112;2023-09-19T04:04:58;97402.59;;;16.70;92.25
21096;BME280;10706;49.036;12.112;2023-09-19T04:07:24;97402.31;;;17.01;91.26
21096;BME280;10706;49.036;12.112;2023-09-19T04:09:54;97407.66;;;17.06;90.82
21096;BME280;10706;49.036;12.112;2023-09-19T04:12:20;97404.91;;;16.87;92.04
21096;BME280;10706;49.036;12.112;2023-09-19T04:14:46;97399.78;;;16.86;92.01
21096;BME280;10706;49.036;12.112;2023-09-19T04:17:12;97402.75;;;16.79;92.64
21096;BME280;10706;49.036;12.112;2023-09-19T04:19:38;97410.84;;;16.79;92.93
21096;BME280;10706;49.036;12.112;2023-09-19T04:22:04;97399.16;;;16.94;91.40
21096;BME280;10706;49.036;12.112;2023-09-19T04:24:30;97409.41;;;16.92;91.35
21096;BME280;10706;49.036;12.112;2023-09-19T04:26:56;97409.31;;;17.02;90.95
21096;BME280;10706;49.036;12.112;2023-09-19T04:29:22;97407.66;;;17.06;90.87
21096;BME280;10706;49.036;12.112;2023-09-19T04:31:48;97404.00;;;16.97;90.67
21096;BME280;10706;49.036;12.112;2023-09-19T04:34:14;97408.34;;;17.17;89.94
21096;BME280;10706;49.036;12.112;2023-09-19T04:36:42;97415.44;;;16.79;90.56
21096;BME280;10706;49.036;12.112;2023-09-19T04:39:09;97413.19;;;16.91;91.08
21096;BME280;10706;49.036;12.112;2023-09-19T04:41:36;97413.16;;;16.96;90.44
21096;BME280;10706;49.036;12.112;2023-09-19T04:44:07;97415.56;;;16.98;90.21
21096;BME280;10706;49.036;12.112;2023-09-19T04:46:35;97422.63;;;16.94;90.80
21096;BME280;10706;49.036;12.112;2023-09-19T04:49:01;97421.69;;;17.08;90.28
21096;BME280;10706;49.036;12.112;2023-09-19T04:51:28;97432.06;;;16.91;90.64
21096;BME280;10706;49.036;12.112;2023-09-19T04:53:58;97436.06;;;16.99;90.15
21096;BME280;10706;49.036;12.112;2023-09-19T04:56:24;97436.53;;;17.06;90.27
21096;BME280;10706;49.036;12.112;2023-09-19T04:58:50;97443.84;;;17.29;89.59
21096;BME280;10706;49.036;12.112;2023-09-19T05:01:16;97442.75;;;17.06;89.80
21096;BME280;10706;49.036;12.112;2023-09-19T05:03:41;97443.47;;;16.83;91.08
21096;BME280;10706;49.036;12.112;2023-09-19T05:06:07;97431.91;;;16.82;91.47
21096;BME280;10706;49.036;12.112;2023-09-19T05:08:33;97433.56;;;16.73;91.48
21096;BME280;10706;49.036;12.112;2023-09-19T05:11:02;97437.28;;;16.77;90.80
21096;BME280;10706;49.036;12.112;2023-09-19T05:13:28;97444.69;;;17.01;90.37
21096;BME280;10706;49.036;12.112;2023-09-19T05:15:54;97441.78;;;16.58;91.86
21096;BME280;10706;49.036;12.112;2023-09-19T05:18:19;97446.38;;;16.92;89.78
21096;BME280;10706;49.036;12.112;2023-09-19T05:20:45;97450.78;;;16.82;90.68
21096;BME280;10706;49.036;12.112;2023-09-19T05:23:11;97447.78;;;17.13;89.40
21096;BME280;10706;49.036;12.112;2023-09-19T05:25:39;97453.91;;;17.24;89.06
21096;BME280;10706;49.036;12.112;2023-09-19T05:28:07;97449.47;;;16.75;90.05
21096;BME280;10706;49.036;12.112;2023-09-19T05:30:34;97448.13;;;17.06;89.22
21096;BME280;10706;49.036;12.112;2023-09-19T05:33:02;97458.81;;;17.17;88.93
21096;BME280;10706;49.036;12.112;2023-09-19T05:35:30;97454.00;;;16.79;90.49
21096;BME280;10706;49.036;12.112;2023-09-19T05:37:57;97457.75;;;17.18;89.02
21096;BME280;10706;49.036;12.112;2023-09-19T05:40:24;97466.31;;;16.96;89.51
21096;BME280;10706;49.036;12.112;2023-09-19T05:42:50;97458.00;;;16.87;89.67
21096;BME280;10706;49.036;12.112;2023-09-19T05:45:17;97456.31;;;16.96;89.06
21096;BME280;10706;49.036;12.112;2023-09-19T05:47:53;97463.50;;;17.06;88.50
21096;BME280;10706;49.036;12.112;2023-09-19T05:50:26;97468.97;;;16.61;90.42
21096;BME280;10706;49.036;12.112;2023-09-19T05:52:53;97468.38;;;16.69;89.59
21096;BME280;10706;49.036;12.112;2023-09-19T05:55:19;97470.69;;;16.86;89.33
21096;BME280;10706;49.036;12.112;2023-09-19T05:57:53;97473.06;;;16.93;89.44
21096;BME280;10706;49.036;12.112;2023-09-19T06:00:20;97468.00;;;16.81;88.88
21096;BME280;10706;49.036;12.112;2023-09-19T06:02:56;97474.47;;;16.85;88.98
21096;BME280;10706;49.036;12.112;2023-09-19T06:05:24;97467.63;;;16.98;88.29
21096;BME280;10706;49.036;12.112;2023-09-19T06:07:52;97476.09;;;16.86;88.39
21096;BME280;10706;49.036;12.112;2023-09-19T06:10:18;97485.66;;;17.03;88.35
21096;BME280;10706;49.036;12.112;2023-09-19T06:12:46;97498.25;;;16.78;88.54
21096;BME280;10706;49.036;12.112;2023-09-19T06:15:14;97491.84;;;17.03;88.32
21096;BME280;10706;49.036;12.112;2023-09-19T06:17:50;97493.28;;;16.96;87.99
21096;BME280;10706;49.036;12.112;2023-09-19T06:20:16;97499.31;;;17.12;88.30
21096;BME280;10706;49.036;12.112;2023-09-19T06:22:44;97492.91;;;17.37;87.37
21096;BME280;10706;49.036;12.112;2023-09-19T06:25:12;97492.84;;;17.42;86.31
21096;BME280;10706;49.036;12.112;2023-09-19T06:27:51;97500.41;;;17.40;86.26
21096;BME280;10706;49.036;12.112;2023-09-19T06:30:22;97506.53;;;17.51;85.68
21096;BME280;10706;49.036;12.112;2023-09-19T06:32:49;97507.22;;;17.61;85.87
21096;BME280;10706;49.036;12.112;2023-09-19T06:35:16;97512.44;;;17.53;85.72
21096;BME280;10706;49.036;12.112;2023-09-19T06:37:43;97512.41;;;17.82;84.52
21096;BME280;10706;49.036;12.112;2023-09-19T06:40:13;97511.31;;;18.07;83.54
21096;BME280;10706;49.036;12.112;2023-09-19T06:43:00;97521.84;;;17.31;84.95
21096;BME280;10706;49.036;12.112;2023-09-19T06:45:28;97527.56;;;17.78;83.95
21096;BME280;10706;49.036;12.112;2023-09-19T06:47:54;97531.19;;;18.16;81.78
21096;BME280;10706;49.036;12.112;2023-09-19T06:50:23;97543.88;;;18.40;81.03
21096;BME280;10706;49.036;12.112;2023-09-19T06:52:53;97534.38;;;18.42;79.91
21096;BME280;10706;49.036;12.112;2023-09-19T06:55:21;97537.16;;;18.75;78.38
21096;BME280;10706;49.036;12.112;2023-09-19T06:57:50;97541.72;;;17.94;81.17
21096;BME280;10706;49.036;12.112;2023-09-19T07:00:17;97543.34;;;18.19;80.77
21096;BME280;10706;49.036;12.112;2023-09-19T07:03:07;97540.50;;;18.29;79.90
21096;BME280;10706;49.036;12.112;2023-09-19T07:05:34;97539.44;;;18.68;79.04
21096;BME280;10706;49.036;12.112;2023-09-19T07:08:08;97545.13;;;18.67;78.67
21096;BME280;10706;49.036;12.112;2023-09-19T07:10:36;97547.16;;;18.37;79.70
21096;BME280;10706;49.036;12.112;2023-09-19T07:13:06;97549.09;;;18.12;80.26
21096;BME280;10706;49.036;12.112;2023-09-19T07:15:34;97556.75;;;18.48;79.27
21096;BME280;10706;49.036;12.112;2023-09-19T07:18:05;97551.09;;;18.01;79.86
21096;BME280;10706;49.036;12.112;2023-09-19T07:20:31;97561.25;;;18.34;79.41
21096;BME280;10706;49.036;12.112;2023-09-19T07:22:58;97557.13;;;18.60;77.89
21096;BME280;10706;49.036;12.112;2023-09-19T07:25:30;97565.25;;;18.60;78.16
21096;BME280;10706;49.036;12.112;2023-09-19T07:27:57;97557.88;;;18.85;77.18
21096;BME280;10706;49.036;12.112;2023-09-19T07:30:26;97560.91;;;18.78;76.73
21096;BME280;10706;49.036;12.112;2023-09-19T07:32:52;97570.56;;;18.65;77.81
21096;BME280;10706;49.036;12.112;2023-09-19T07:35:19;97561.81;;;18.74;77.19
21096;BME280;10706;49.036;12.112;2023-09-19T07:37:48;97560.84;;;18.64;76.76
21096;BME280;10706;49.036;12.112;2023-09-19T07:40:15;97564.28;;;19.08;75.56
21096;BME280;10706;49.036;12.112;2023-09-19T07:42:42;97560.94;;;19.16;75.39
21096;BME280;10706;49.036;12.112;2023-09-19T07:45:10;97564.47;;;19.31;74.42
21096;BME280;10706;49.036;12.112;2023-09-19T07:47:49;97567.06;;;19.22;73.69
21096;BME280;10706;49.036;12.112;2023-09-19T07:50:19;97582.03;;;19.33;73.35
21096;BME280;10706;49.036;12.112;2023-09-19T07:52:50;97581.72;;;19.68;72.10
21096;BME280;10706;49.036;12.112;2023-09-19T07:55:19;97587.00;;;19.59;72.06
21096;BME280;10706;49.036;12.112;2023-09-19T07:57:49;97594.94;;;20.16;70.70
21096;BME280;10706;49.036;12.112;2023-09-19T08:00:15;97589.34;;;19.66;71.89
21096;BME280;10706;49.036;12.112;2023-09-19T08:02:42;97591.31;;;19.93;69.25
21096;BME280;10706;49.036;12.112;2023-09-19T08:05:10;97599.56;;;19.69;69.80
21096;BME280;10706;49.036;12.112;2023-09-19T08:07:40;97600.84;;;19.57;70.21
21096;BME280;10706;49.036;12.112;2023-09-19T08:10:07;97599.59;;;19.36;70.80
21096;BME280;10706;49.036;12.112;2023-09-19T08:12:37;97602.50;;;19.39;70.97
21096;BME280;10706;49.036;12.112;2023-09-19T08:15:03;97601.97;;;19.56;71.44
21096;BME280;10706;49.036;12.112;2023-09-19T08:17:34;97603.84;;;19.89;70.43
21096;BME280;10706;49.036;12.112;2023-09-19T08:20:01;97604.63;;;19.75;70.06
21096;BME280;10706;49.036;12.112;2023-09-19T08:22:28;97597.94;;;20.00;69.77
21096;BME280;10706;49.036;12.112;2023-09-19T08:24:54;97606.28;;;20.32;68.86
21096;BME280;10706;49.036;12.112;2023-09-19T08:27:21;97607.28;;;20.64;68.16
21096;BME280;10706;49.036;12.112;2023-09-19T08:29:48;97607.19;;;20.69;65.32
21096;BME280;10706;49.036;12.112;2023-09-19T08:32:15;97608.78;;;20.70;66.98
21096;BME280;10706;49.036;12.112;2023-09-19T08:34:41;97604.50;;;20.27;67.78
21096;BME280;10706;49.036;12.112;2023-09-19T08:37:07;97594.22;;;20.52;67.37
21096;BME280;10706;49.036;12.112;2023-09-19T08:39:33;97601.56;;;21.02;66.28
21096;BME280;10706;49.036;12.112;2023-09-19T08:42:01;97603.72;;;21.50;64.25
21096;BME280;10706;49.036;12.112;2023-09-19T08:44:28;97601.09;;;21.22;63.49
21096;BME280;10706;49.036;12.112;2023-09-19T08:47:13;97609.19;;;20.77;64.99
21096;BME280;10706;49.036;12.112;2023-09-19T08:50:09;97602.47;;;20.61;65.36
21096;BME280;10706;49.036;12.112;2023-09-19T08:52:43;97604.88;;;20.48;65.87
21096;BME280;10706;49.036;12.112;2023-09-19T08:55:14;97606.16;;;20.51;66.40
21096;BME280;10706;49.036;12.112;2023-09-19T08:57:46;97605.88;;;20.11;66.76
21096;BME280;10706;49.036;12.112;2023-09-19T09:00:16;97614.94;;;20.62;65.42
21096;BME280;10706;49.036;12.112;2023-09-19T09:02:47;97616.13;;;20.14;66.28
21096;BME280;10706;49.036;12.112;2023-09-19T09:05:13;97614.69;;;20.03;66.95
21096;BME280;10706;49.036;12.112;2023-09-19T09:07:41;97622.25;;;20.06;67.01
21096;BME280;10706;49.036;12.112;2023-09-19T09:10:08;97624.06;;;20.10;67.31
21096;BME280;10706;49.036;12.112;2023-09-19T09:12:35;97631.09;;;20.39;67.34
21096;BME280;10706;49.036;12.112;2023-09-19T09:15:07;97630.78;;;19.99;67.03
21096;BME280;10706;49.036;12.112;2023-09-19T09:17:34;97629.38;;;19.88;68.15
21096;BME280;10706;49.036;12.112;2023-09-19T09:20:00;97638.56;;;19.87;67.84
21096;BME280;10706;49.036;12.112;2023-09-19T09:22:26;97632.88;;;20.02;68.44
21096;BME280;10706;49.036;12.112;2023-09-19T09:24:56;97635.00;;;20.05;64.30
21096;BME280;10706;49.036;12.112;2023-09-19T09:27:24;97644.09;;;19.62;62.07
21096;BME280;10706;49.036;12.112;2023-09-19T09:29:52;97643.91;;;19.92;61.21
21096;BME280;10706;49.036;12.112;2023-09-19T09:32:29;97639.63;;;20.18;59.90
21096;BME280;10706;49.036;12.112;2023-09-19T09:34:59;97645.94;;;20.00;59.49
21096;BME280;10706;49.036;12.112;2023-09-19T09:37:26;97644.91;;;19.82;60.21
21096;BME280;10706;49.036;12.112;2023-09-19T09:40:00;97636.25;;;19.61;61.47
21096;BME280;10706;49.036;12.112;2023-09-19T09:42:45;97627.94;;;19.76;61.92
21096;BME280;10706;49.036;12.112;2023-09-19T09:45:15;97637.94;;;19.76;62.52
21096;BME280;10706;49.036;12.112;2023-09-19T09:47:46;97648.00;;;19.56;63.77
21096;BME280;10706;49.036;12.112;2023-09-19T09:50:30;97654.03;;;18.96;65.94
21096;BME280;10706;49.036;12.112;2023-09-19T09:53:29;97658.72;;;18.91;66.50
21096;BME280;10706;49.036;12.112;2023-09-19T09:56:07;97650.09;;;18.64;67.27
21096;BME280;10706;49.036;12.112;2023-09-19T09:58:50;97662.09;;;19.01;65.44
21096;BME280;10706;49.036;12.112;2023-09-19T10:01:20;97671.81;;;19.40;64.16
21096;BME280;10706;49.036;12.112;2023-09-19T10:03:46;97673.19;;;19.38;63.54
21096;BME280;10706;49.036;12.112;2023-09-19T10:06:18;97667.88;;;19.85;61.94
21096;BME280;10706;49.036;12.112;2023-09-19T10:11:44;97672.94;;;19.72;59.71
21096;BME280;10706;49.036;12.112;2023-09-19T10:14:14;97674.00;;;20.37;58.19
21096;BME280;10706;49.036;12.112;2023-09-19T10:16:48;97656.47;;;20.15;57.64
21096;BME280;10706;49.036;12.112;2023-09-19T10:19:27;97667.53;;;20.05;59.13
21096;BME280;10706;49.036;12.112;2023-09-19T10:21:55;97662.84;;;20.80;57.23
21096;BME280;10706;49.036;12.112;2023-09-19T10:24:23;97663.75;;;20.48;58.95
21096;BME280;10706;49.036;12.112;2023-09-19T10:26:51;97657.03;;;21.09;57.24
21096;BME280;10706;49.036;12.112;2023-09-19T10:29:21;97657.28;;;20.99;56.16
21096;BME280;10706;49.036;12.112;2023-09-19T10:31:52;97664.94;;;20.28;58.36
21096;BME280;10706;49.036;12.112;2023-09-19T10:34:20;97671.50;;;20.82;57.63
21096;BME280;10706;49.036;12.112;2023-09-19T10:36:48;97668.09;;;21.13;57.79
21096;BME280;10706;49.036;12.112;2023-09-19T10:39:16;97668.69;;;20.73;58.62
21096;BME280;10706;49.036;12.112;2023-09-19T10:41:54;97674.59;;;20.48;58.74
21096;BME280;10706;49.036;12.112;2023-09-19T10:44:24;97678.69;;;20.17;60.27
21096;BME280;10706;49.036;12.112;2023-09-19T10:46:52;97669.03;;;20.11;61.09
21096;BME280;10706;49.036;12.112;2023-09-19T10:49:20;97665.91;;;19.71;62.06
21096;BME280;10706;49.036;12.112;2023-09-19T10:51:49;97663.50;;;21.00;58.60
21096;BME280;10706;49.036;12.112;2023-09-19T10:54:21;97658.06;;;21.72;57.08
21096;BME280;10706;49.036;12.112;2023-09-19T10:56:50;97657.72;;;21.15;58.57
21096;BME280;10706;49.036;12.112;2023-09-19T10:59:22;97662.44;;;21.60;56.64
21096;BME280;10706;49.036;12.112;2023-09-19T11:01:55;97670.50;;;20.64;59.63
21096;BME280;10706;49.036;12.112;2023-09-19T11:04:30;97673.59;;;20.57;61.22
21096;BME280;10706;49.036;12.112;2023-09-19T11:09:50;97668.28;;;20.38;61.67
21096;BME280;10706;49.036;12.112;2023-09-19T11:14:58;97657.19;;;20.90;60.17
21096;BME280;10706;49.036;12.112;2023-09-19T11:17:35;97668.50;;;21.20;58.20
21096;BME280;10706;49.036;12.112;2023-09-19T11:33:19;97667.03;;;21.36;57.10
21096;BME280;10706;49.036;12.112;2023-09-19T11:36:09;97671.16;;;21.48;58.46
21096;BME280;10706;49.036;12.112;2023-09-19T11:43:54;97665.91;;;21.38;56.88
21096;BME280;10706;49.036;12.112;2023-09-19T11:49:31;97652.09;;;21.93;55.78
21096;BME280;10706;49.036;12.112;2023-09-19T11:52:01;97644.78;;;21.71;57.21
21096;BME280;10706;49.036;12.112;2023-09-19T11:54:31;97646.81;;;21.65;56.60
21096;BME280;10706;49.036;12.112;2023-09-19T11:56:59;97647.63;;;22.68;55.75
21096;BME280;10706;49.036;12.112;2023-09-19T11:59:27;97639.59;;;22.55;54.31
21096;BME280;10706;49.036;12.112;2023-09-19T12:02:05;97652.97;;;22.11;55.11
21096;BME280;10706;49.036;12.112;2023-09-19T12:07:11;97647.28;;;22.52;54.09
21096;BME280;10706;49.036;12.112;2023-09-19T12:10:04;97633.28;;;23.12;50.63
21096;BME280;10706;49.036;12.112;2023-09-19T12:12:31;97637.28;;;23.49;50.38
21096;BME280;10706;49.036;12.112;2023-09-19T12:14:59;97637.81;;;23.16;50.70
21096;BME280;10706;49.036;12.112;2023-09-19T12:17:41;97643.56;;;23.06;51.05
21096;BME280;10706;49.036;12.112;2023-09-19T12:20:09;97645.97;;;23.34;49.53
21096;BME280;10706;49.036;12.112;2023-09-19T12:22:46;97641.94;;;23.48;49.86
21096;BME280;10706;49.036;12.112;2023-09-19T12:25:13;97646.94;;;24.20;48.57
21096;BME280;10706;49.036;12.112;2023-09-19T12:27:49;97635.75;;;24.13;46.17
21096;BME280;10706;49.036;12.112;2023-09-19T12:30:18;97627.00;;;23.90;46.98
21096;BME280;10706;49.036;12.112;2023-09-19T12:32:46;97633.94;;;24.17;45.76
21096;BME280;10706;49.036;12.112;2023-09-19T12:35:32;97631.81;;;24.31;46.11
21096;BME280;10706;49.036;12.112;2023-09-19T12:38:01;97626.00;;;23.94;44.38
21096;BME280;10706;49.036;12.112;2023-09-19T12:40:29;97617.19;;;23.89;43.60
21096;BME280;10706;49.036;12.112;2023-09-19T12:43:02;97616.19;;;24.02;43.82
21096;BME280;10706;49.036;12.112;2023-09-19T12:45:29;97601.47;;;24.33;43.62
21096;BME280;10706;49.036;12.112;2023-09-19T12:48:22;97600.50;;;24.67;41.71
21096;BME280;10706;49.036;12.112;2023-09-19T12:51:19;97602.69;;;24.74;42.87
21096;BME280;10706;49.036;12.112;2023-09-19T12:53:57;97605.19;;;25.30;40.91
21096;BME280;10706;49.036;12.112;2023-09-19T12:56:23;97595.19;;;24.92;41.16
21096;BME280;10706;49.036;12.112;2023-09-19T12:58:55;97602.72;;;25.70;40.17
21096;BME280;10706;49.036;12.112;2023-09-19T13:01:34;97620.03;;;25.74;39.14
21096;BME280;10706;49.036;12.112;2023-09-19T13:04:20;97610.13;;;25.36;39.79
21096;BME280;10706;49.036;12.112;2023-09-19T13:06:54;97611.84;;;24.78;42.20
21096;BME280;10706;49.036;12.112;2023-09-19T13:09:22;97612.81;;;24.73;40.41
21096;BME280;10706;49.036;12.112;2023-09-19T13:11:54;97616.66;;;24.04;43.47
21096;BME280;10706;49.036;12.112;2023-09-19T13:14:26;97617.53;;;23.70;44.11
21096;BME280;10706;49.036;12.112;2023-09-19T13:17:06;97621.50;;;23.98;42.97
21096;BME280;10706;49.036;12.112;2023-09-19T13:19:51;97609.25;;;24.13;43.37
21096;BME280;10706;49.036;12.112;2023-09-19T13:22:47;97599.28;;;23.61;43.94
21096;BME280;10706;49.036;12.112;2023-09-19T13:26:24;97602.06;;;24.09;43.79
21096;BME280;10706;49.036;12.112;2023-09-19T13:29:30;97600.75;;;24.44;43.27
21096;BME280;10706;49.036;12.112;2023-09-19T13:32:16;97595.41;;;23.80;44.80
21096;BME280;10706;49.036;12.112;2023-09-19T13:34:45;97602.22;;;23.39;45.50
21096;BME280;10706;49.036;12.112;2023-09-19T13:37:39;97599.78;;;23.46;45.57
21096;BME280;10706;49.036;12.112;2023-09-19T13:46:19;97595.72;;;24.25;44.10
21096;BME280;10706;49.036;12.112;2023-09-19T13:48:28;97591.81;;;24.35;43.94
21096;BME280;10706;49.036;12.112;2023-09-19T13:51:22;97593.00;;;24.25;44.70
21096;BME280;10706;49.036;12.112;2023-09-19T13:54:08;97598.16;;;24.18;44.13
21096;BME280;10706;49.036;12.112;2023-09-19T14:02:44;97585.88;;;23.39;45.41
21096;BME280;10706;49.036;12.112;2023-09-19T14:05:14;97585.16;;;23.68;44.58
21096;BME280;10706;49.036;12.112;2023-09-19T14:07:54;97587.81;;;23.03;45.36